sensor_id;sensor_type;location;lat;lon;timestamp;P1;durP1;ratioP1;P2;durP2;ratioP2
5493;SDS011;2769;49.864;8.656;2022-10-16T00:01:22;3.23;;;2.23;;
5493;SDS011;2769;49.864;8.656;2022-10-16T00:03:51;2.67;;;2.37;;
5493;SDS011;2769;49.864;8.656;2022-10-16T00:06:20;2.10;;;2.00;;
5493;SDS011;2769;49.864;8.656;2022-10-16T00:08:50;5.90;;;2.10;;
5493;SDS011;2769;49.864;8.656;2022-10-16T00:11:19;2.67;;;2.47;;
5493;SDS011;2769;49.864;8.656;2022-10-16T00:13:50;2.77;;;2.50;;
5493;SDS011;2769;49.864;8.656;2022-10-16T00:16:22;2.17;;;2.03;;
5493;SDS011;2769;49.864;8.656;2022-10-16T00:18:51;2.77;;;2.40;;
5493;SDS011;2769;49.864;8.656;2022-10-16T00:21:20;3.70;;;2.37;;
5493;SDS011;2769;49.864;8.656;2022-10-16T00:23:50;3.10;;;2.40;;
5493;SDS011;2769;49.864;8.656;2022-10-16T00:26:19;3.13;;;2.27;;
5493;SDS011;2769;49.864;8.656;2022-10-16T00:28:47;2.17;;;1.90;;
5493;SDS011;2769;49.864;8.656;2022-10-16T00:31:18;1.90;;;1.80;;
5493;SDS011;2769;49.864;8.656;2022-10-16T00:33:48;7.70;;;1.93;;
5493;SDS011;2769;49.864;8.656;2022-10-16T00:36:17;2.30;;;2.10;;
5493;SDS011;2769;49.864;8.656;2022-10-16T00:38:49;2.00;;;1.90;;
5493;SDS011;2769;49.864;8.656;2022-10-16T00:41:22;1.77;;;1.67;;
5493;SDS011;2769;49.864;8.656;2022-10-16T00:43:52;3.43;;;1.90;;
5493;SDS011;2769;49.864;8.656;2022-10-16T00:46:24;2.43;;;1.80;;
5493;SDS011;2769;49.864;8.656;2022-10-16T00:48:55;7.30;;;1.83;;
5493;SDS011;2769;49.864;8.656;2022-10-16T00:51:29;2.03;;;1.40;;
5493;SDS011;2769;49.864;8.656;2022-10-16T00:54:01;1.70;;;1.53;;
5493;SDS011;2769;49.864;8.656;2022-10-16T00:56:31;2.80;;;1.10;;
5493;SDS011;2769;49.864;8.656;2022-10-16T00:59:01;1.23;;;1.17;;
5493;SDS011;2769;49.864;8.656;2022-10-16T01:01:32;1.90;;;1.03;;
5493;SDS011;2769;49.864;8.656;2022-10-16T01:04:00;1.10;;;1.10;;
5493;SDS011;2769;49.864;8.656;2022-10-16T01:06:31;1.63;;;1.20;;
5493;SDS011;2769;49.864;8.656;2022-10-16T01:09:09;0.90;;;0.90;;
5493;SDS011;2769;49.864;8.656;2022-10-16T01:11:44;1.67;;;1.20;;
5493;SDS011;2769;49.864;8.656;2022-10-16T01:14:22;0.93;;;0.93;;
5493;SDS011;2769;49.864;8.656;2022-10-16T01:16:57;0.80;;;0.80;;
5493;SDS011;2769;49.864;8.656;2022-10-16T01:19:34;1.07;;;1.00;;
5493;SDS011;2769;49.864;8.656;2022-10-16T01:22:11;1.27;;;1.00;;
5493;SDS011;2769;49.864;8.656;2022-10-16T01:24:40;2.67;;;1.30;;
5493;SDS011;2769;49.864;8.656;2022-10-16T01:27:13;1.13;;;1.03;;
5493;SDS011;2769;49.864;8.656;2022-10-16T01:29:49;2.53;;;0.90;;
5493;SDS011;2769;49.864;8.656;2022-10-16T01:32:23;5.33;;;0.90;;
5493;SDS011;2769;49.864;8.656;2022-10-16T01:34:59;1.87;;;0.90;;
5493;SDS011;2769;49.864;8.656;2022-10-16T01:37:32;2.40;;;1.00;;
5493;SDS011;2769;49.864;8.656;2022-10-16T01:40:05;1.77;;;0.90;;
5493;SDS011;2769;49.864;8.656;2022-10-16T01:42:38;1.40;;;1.00;;
5493;SDS011;2769;49.864;8.656;2022-10-16T01:45:10;3.03;;;1.03;;
5493;SDS011;2769;49.864;8.656;2022-10-16T01:47:41;1.63;;;1.10;;
5493;SDS011;2769;49.864;8.656;2022-10-16T01:50:11;1.27;;;1.27;;
5493;SDS011;2769;49.864;8.656;2022-10-16T01:52:42;3.57;;;1.33;;
5493;SDS011;2769;49.864;8.656;2022-10-16T01:55:16;1.10;;;1.10;;
5493;SDS011;2769;49.864;8.656;2022-10-16T01:57:49;2.43;;;1.40;;
5493;SDS011;2769;49.864;8.656;2022-10-16T02:00:19;1.07;;;1.07;;
5493;SDS011;2769;49.864;8.656;2022-10-16T02:02:50;2.40;;;1.23;;
5493;SDS011;2769;49.864;8.656;2022-10-16T02:05:22;1.50;;;1.37;;
5493;SDS011;2769;49.864;8.656;2022-10-16T02:07:55;2.80;;;1.50;;
5493;SDS011;2769;49.864;8.656;2022-10-16T02:10:28;4.30;;;1.63;;
5493;SDS011;2769;49.864;8.656;2022-10-16T02:13:00;2.50;;;1.50;;
5493;SDS011;2769;49.864;8.656;2022-10-16T02:15:33;1.97;;;1.93;;
5493;SDS011;2769;49.864;8.656;2022-10-16T02:18:01;2.00;;;1.90;;
5493;SDS011;2769;49.864;8.656;2022-10-16T02:20:31;5.93;;;2.30;;
5493;SDS011;2769;49.864;8.656;2022-10-16T02:23:03;3.00;;;2.00;;
5493;SDS011;2769;49.864;8.656;2022-10-16T02:25:34;2.50;;;2.30;;
5493;SDS011;2769;49.864;8.656;2022-10-16T02:28:09;2.30;;;2.20;;
5493;SDS011;2769;49.864;8.656;2022-10-16T02:30:43;4.70;;;2.10;;
5493;SDS011;2769;49.864;8.656;2022-10-16T02:33:16;4.50;;;2.47;;
5493;SDS011;2769;49.864;8.656;2022-10-16T02:35:47;3.90;;;2.20;;
5493;SDS011;2769;49.864;8.656;2022-10-16T02:38:18;3.17;;;2.17;;
5493;SDS011;2769;49.864;8.656;2022-10-16T02:40:47;3.80;;;2.30;;
5493;SDS011;2769;49.864;8.656;2022-10-16T02:43:17;3.57;;;2.37;;
5493;SDS011;2769;49.864;8.656;2022-10-16T02:45:46;7.70;;;2.87;;
5493;SDS011;2769;49.864;8.656;2022-10-16T02:48:15;7.50;;;3.10;;
5493;SDS011;2769;49.864;8.656;2022-10-16T02:50:43;3.63;;;2.67;;
5493;SDS011;2769;49.864;8.656;2022-10-16T02:53:11;3.37;;;2.87;;
5493;SDS011;2769;49.864;8.656;2022-10-16T02:55:39;3.73;;;3.07;;
5493;SDS011;2769;49.864;8.656;2022-10-16T02:58:08;4.23;;;3.83;;
5493;SDS011;2769;49.864;8.656;2022-10-16T03:00:37;5.37;;;4.40;;
5493;SDS011;2769;49.864;8.656;2022-10-16T03:03:06;4.83;;;4.07;;
5493;SDS011;2769;49.864;8.656;2022-10-16T03:05:34;7.27;;;4.80;;
5493;SDS011;2769;49.864;8.656;2022-10-16T03:08:02;5.53;;;4.93;;
5493;SDS011;2769;49.864;8.656;2022-10-16T03:10:31;7.70;;;4.83;;
5493;SDS011;2769;49.864;8.656;2022-10-16T03:12:59;12.67;;;4.83;;
5493;SDS011;2769;49.864;8.656;2022-10-16T03:15:27;12.63;;;5.23;;
5493;SDS011;2769;49.864;8.656;2022-10-16T03:17:58;4.83;;;4.30;;
5493;SDS011;2769;49.864;8.656;2022-10-16T03:20:26;11.57;;;6.30;;
5493;SDS011;2769;49.864;8.656;2022-10-16T03:22:54;5.70;;;5.00;;
5493;SDS011;2769;49.864;8.656;2022-10-16T03:25:23;5.60;;;4.77;;
5493;SDS011;2769;49.864;8.656;2022-10-16T03:27:51;6.23;;;5.30;;
5493;SDS011;2769;49.864;8.656;2022-10-16T03:30:20;10.90;;;4.90;;
5493;SDS011;2769;49.864;8.656;2022-10-16T03:32:48;9.23;;;4.83;;
5493;SDS011;2769;49.864;8.656;2022-10-16T03:35:21;10.73;;;5.27;;
5493;SDS011;2769;49.864;8.656;2022-10-16T03:37:51;7.00;;;5.20;;
5493;SDS011;2769;49.864;8.656;2022-10-16T03:40:19;10.07;;;4.67;;
5493;SDS011;2769;49.864;8.656;2022-10-16T03:42:47;6.40;;;5.00;;
5493;SDS011;2769;49.864;8.656;2022-10-16T03:45:16;6.03;;;4.60;;
5493;SDS011;2769;49.864;8.656;2022-10-16T03:47:44;6.43;;;4.60;;
5493;SDS011;2769;49.864;8.656;2022-10-16T03:50:12;7.10;;;5.03;;
5493;SDS011;2769;49.864;8.656;2022-10-16T03:52:42;5.63;;;5.13;;
5493;SDS011;2769;49.864;8.656;2022-10-16T03:55:10;7.17;;;4.97;;
5493;SDS011;2769;49.864;8.656;2022-10-16T03:57:38;9.03;;;4.50;;
5493;SDS011;2769;49.864;8.656;2022-10-16T04:00:07;15.53;;;5.20;;
5493;SDS011;2769;49.864;8.656;2022-10-16T04:02:38;6.73;;;5.30;;
5493;SDS011;2769;49.864;8.656;2022-10-16T04:05:07;7.13;;;4.93;;
5493;SDS011;2769;49.864;8.656;2022-10-16T04:07:35;7.50;;;5.07;;
5493;SDS011;2769;49.864;8.656;2022-10-16T04:10:05;7.17;;;4.60;;
5493;SDS011;2769;49.864;8.656;2022-10-16T04:12:34;6.60;;;5.30;;
5493;SDS011;2769;49.864;8.656;2022-10-16T04:15:02;8.00;;;5.33;;
5493;SDS011;2769;49.864;8.656;2022-10-16T04:17:31;8.10;;;5.50;;
5493;SDS011;2769;49.864;8.656;2022-10-16T04:19:59;8.90;;;5.37;;
5493;SDS011;2769;49.864;8.656;2022-10-16T04:22:27;7.13;;;5.33;;
5493;SDS011;2769;49.864;8.656;2022-10-16T04:24:55;8.33;;;4.83;;
5493;SDS011;2769;49.864;8.656;2022-10-16T04:27:25;5.93;;;5.30;;
5493;SDS011;2769;49.864;8.656;2022-10-16T04:29:55;9.50;;;4.77;;
5493;SDS011;2769;49.864;8.656;2022-10-16T04:32:24;5.87;;;5.23;;
5493;SDS011;2769;49.864;8.656;2022-10-16T04:34:52;8.10;;;5.53;;
5493;SDS011;2769;49.864;8.656;2022-10-16T04:37:23;5.40;;;5.00;;
5493;SDS011;2769;49.864;8.656;2022-10-16T04:39:52;7.23;;;4.67;;
5493;SDS011;2769;49.864;8.656;2022-10-16T04:42:20;7.07;;;5.30;;
5493;SDS011;2769;49.864;8.656;2022-10-16T04:44:50;5.77;;;4.70;;
5493;SDS011;2769;49.864;8.656;2022-10-16T04:47:19;6.90;;;5.10;;
5493;SDS011;2769;49.864;8.656;2022-10-16T04:49:47;5.13;;;4.63;;
5493;SDS011;2769;49.864;8.656;2022-10-16T04:52:15;5.63;;;5.13;;
5493;SDS011;2769;49.864;8.656;2022-10-16T04:54:45;5.90;;;4.90;;
5493;SDS011;2769;49.864;8.656;2022-10-16T04:57:13;6.10;;;5.37;;
5493;SDS011;2769;49.864;8.656;2022-10-16T04:59:41;4.93;;;4.53;;
5493;SDS011;2769;49.864;8.656;2022-10-16T05:02:12;6.60;;;5.00;;
5493;SDS011;2769;49.864;8.656;2022-10-16T05:04:40;8.90;;;5.40;;
5493;SDS011;2769;49.864;8.656;2022-10-16T05:07:08;6.40;;;5.00;;
5493;SDS011;2769;49.864;8.656;2022-10-16T05:09:36;11.80;;;4.67;;
5493;SDS011;2769;49.864;8.656;2022-10-16T05:12:04;6.20;;;4.80;;
5493;SDS011;2769;49.864;8.656;2022-10-16T05:14:32;12.80;;;4.57;;
5493;SDS011;2769;49.864;8.656;2022-10-16T05:17:00;4.97;;;4.47;;
5493;SDS011;2769;49.864;8.656;2022-10-16T05:19:30;12.20;;;4.40;;
5493;SDS011;2769;49.864;8.656;2022-10-16T05:21:58;4.90;;;4.33;;
5493;SDS011;2769;49.864;8.656;2022-10-16T05:24:26;6.23;;;4.40;;
5493;SDS011;2769;49.864;8.656;2022-10-16T05:26:55;5.63;;;4.30;;
5493;SDS011;2769;49.864;8.656;2022-10-16T05:29:23;4.20;;;3.80;;
5493;SDS011;2769;49.864;8.656;2022-10-16T05:31:51;4.67;;;4.27;;
5493;SDS011;2769;49.864;8.656;2022-10-16T05:34:20;7.80;;;4.97;;
5493;SDS011;2769;49.864;8.656;2022-10-16T05:36:50;7.20;;;4.30;;
5493;SDS011;2769;49.864;8.656;2022-10-16T05:39:18;4.80;;;3.97;;
5493;SDS011;2769;49.864;8.656;2022-10-16T05:41:49;13.63;;;4.67;;
5493;SDS011;2769;49.864;8.656;2022-10-16T05:44:18;6.73;;;4.40;;
5493;SDS011;2769;49.864;8.656;2022-10-16T05:46:47;6.27;;;4.40;;
5493;SDS011;2769;49.864;8.656;2022-10-16T05:49:15;6.20;;;3.80;;
5493;SDS011;2769;49.864;8.656;2022-10-16T05:51:43;8.77;;;4.50;;
5493;SDS011;2769;49.864;8.656;2022-10-16T05:54:13;6.30;;;4.20;;
5493;SDS011;2769;49.864;8.656;2022-10-16T05:56:41;10.97;;;4.10;;
5493;SDS011;2769;49.864;8.656;2022-10-16T05:59:09;7.00;;;4.27;;
5493;SDS011;2769;49.864;8.656;2022-10-16T06:01:37;5.30;;;3.77;;
5493;SDS011;2769;49.864;8.656;2022-10-16T06:04:06;6.20;;;4.57;;
5493;SDS011;2769;49.864;8.656;2022-10-16T06:06:40;5.03;;;4.53;;
5493;SDS011;2769;49.864;8.656;2022-10-16T06:09:08;5.10;;;4.37;;
5493;SDS011;2769;49.864;8.656;2022-10-16T06:11:38;6.10;;;4.27;;
5493;SDS011;2769;49.864;8.656;2022-10-16T06:14:07;8.03;;;4.40;;
5493;SDS011;2769;49.864;8.656;2022-10-16T06:16:36;4.23;;;3.73;;
5493;SDS011;2769;49.864;8.656;2022-10-16T06:19:04;6.20;;;3.87;;
5493;SDS011;2769;49.864;8.656;2022-10-16T06:21:34;9.10;;;3.70;;
5493;SDS011;2769;49.864;8.656;2022-10-16T06:24:03;6.73;;;3.83;;
5493;SDS011;2769;49.864;8.656;2022-10-16T06:26:31;7.67;;;3.40;;
5493;SDS011;2769;49.864;8.656;2022-10-16T06:29:01;8.90;;;3.50;;
5493;SDS011;2769;49.864;8.656;2022-10-16T06:31:29;6.60;;;3.57;;
5493;SDS011;2769;49.864;8.656;2022-10-16T06:33:59;7.90;;;3.50;;
5493;SDS011;2769;49.864;8.656;2022-10-16T06:36:28;7.90;;;3.90;;
5493;SDS011;2769;49.864;8.656;2022-10-16T06:38:56;3.40;;;3.10;;
5493;SDS011;2769;49.864;8.656;2022-10-16T06:41:24;3.77;;;3.47;;
5493;SDS011;2769;49.864;8.656;2022-10-16T06:43:52;3.03;;;2.90;;
5493;SDS011;2769;49.864;8.656;2022-10-16T06:46:23;11.27;;;3.40;;
5493;SDS011;2769;49.864;8.656;2022-10-16T06:48:53;5.90;;;3.17;;
5493;SDS011;2769;49.864;8.656;2022-10-16T06:51:21;13.23;;;3.50;;
5493;SDS011;2769;49.864;8.656;2022-10-16T06:53:52;9.97;;;3.40;;
5493;SDS011;2769;49.864;8.656;2022-10-16T06:56:30;6.57;;;3.10;;
5493;SDS011;2769;49.864;8.656;2022-10-16T06:58:59;3.30;;;3.10;;
5493;SDS011;2769;49.864;8.656;2022-10-16T07:01:29;10.13;;;3.50;;
5493;SDS011;2769;49.864;8.656;2022-10-16T07:03:57;5.50;;;3.13;;
5493;SDS011;2769;49.864;8.656;2022-10-16T07:06:26;11.13;;;2.90;;
5493;SDS011;2769;49.864;8.656;2022-10-16T07:08:54;6.93;;;3.17;;
5493;SDS011;2769;49.864;8.656;2022-10-16T07:11:23;3.30;;;3.10;;
5493;SDS011;2769;49.864;8.656;2022-10-16T07:13:51;3.37;;;3.17;;
5493;SDS011;2769;49.864;8.656;2022-10-16T07:16:22;6.30;;;3.13;;
5493;SDS011;2769;49.864;8.656;2022-10-16T07:18:52;7.00;;;3.50;;
5493;SDS011;2769;49.864;8.656;2022-10-16T07:21:26;9.03;;;3.07;;
5493;SDS011;2769;49.864;8.656;2022-10-16T07:23:57;12.60;;;3.20;;
5493;SDS011;2769;49.864;8.656;2022-10-16T07:26:28;6.53;;;3.03;;
5493;SDS011;2769;49.864;8.656;2022-10-16T07:28:58;5.37;;;2.77;;
5493;SDS011;2769;49.864;8.656;2022-10-16T07:31:27;4.43;;;2.50;;
5493;SDS011;2769;49.864;8.656;2022-10-16T07:33:57;5.53;;;2.73;;
5493;SDS011;2769;49.864;8.656;2022-10-16T07:36:28;4.33;;;2.77;;
5493;SDS011;2769;49.864;8.656;2022-10-16T07:38:56;5.80;;;3.23;;
5493;SDS011;2769;49.864;8.656;2022-10-16T07:41:26;6.83;;;2.43;;
5493;SDS011;2769;49.864;8.656;2022-10-16T07:43:55;6.10;;;2.60;;
5493;SDS011;2769;49.864;8.656;2022-10-16T07:46:26;2.60;;;2.40;;
5493;SDS011;2769;49.864;8.656;2022-10-16T07:48:56;4.43;;;2.20;;
5493;SDS011;2769;49.864;8.656;2022-10-16T07:51:25;6.40;;;3.33;;
5493;SDS011;2769;49.864;8.656;2022-10-16T07:53:53;3.30;;;2.80;;
5493;SDS011;2769;49.864;8.656;2022-10-16T07:56:22;2.80;;;2.60;;
5493;SDS011;2769;49.864;8.656;2022-10-16T07:58:50;3.90;;;2.80;;
5493;SDS011;2769;49.864;8.656;2022-10-16T08:01:18;6.80;;;2.53;;
5493;SDS011;2769;49.864;8.656;2022-10-16T08:03:47;7.80;;;2.40;;
5493;SDS011;2769;49.864;8.656;2022-10-16T08:06:18;3.50;;;2.30;;
5493;SDS011;2769;49.864;8.656;2022-10-16T08:08:53;11.60;;;2.50;;
5493;SDS011;2769;49.864;8.656;2022-10-16T08:11:22;5.43;;;2.20;;
5493;SDS011;2769;49.864;8.656;2022-10-16T08:13:50;2.83;;;2.63;;
5493;SDS011;2769;49.864;8.656;2022-10-16T08:16:19;6.00;;;2.20;;
5493;SDS011;2769;49.864;8.656;2022-10-16T08:18:47;3.60;;;1.93;;
5493;SDS011;2769;49.864;8.656;2022-10-16T08:21:19;6.07;;;2.43;;
5493;SDS011;2769;49.864;8.656;2022-10-16T08:23:49;2.50;;;2.20;;
5493;SDS011;2769;49.864;8.656;2022-10-16T08:26:26;3.10;;;2.30;;
5493;SDS011;2769;49.864;8.656;2022-10-16T08:29:06;3.40;;;2.90;;
5493;SDS011;2769;49.864;8.656;2022-10-16T08:31:35;5.33;;;2.53;;
5493;SDS011;2769;49.864;8.656;2022-10-16T08:34:03;5.10;;;2.73;;
5493;SDS011;2769;49.864;8.656;2022-10-16T08:36:33;5.30;;;2.83;;
5493;SDS011;2769;49.864;8.656;2022-10-16T08:39:02;4.90;;;2.60;;
5493;SDS011;2769;49.864;8.656;2022-10-16T08:41:39;5.30;;;2.63;;
5493;SDS011;2769;49.864;8.656;2022-10-16T08:44:36;6.60;;;3.00;;
5493;SDS011;2769;49.864;8.656;2022-10-16T08:47:24;4.00;;;3.20;;
5493;SDS011;2769;49.864;8.656;2022-10-16T08:50:02;3.20;;;2.90;;
5493;SDS011;2769;49.864;8.656;2022-10-16T08:52:40;2.53;;;2.43;;
5493;SDS011;2769;49.864;8.656;2022-10-16T08:55:16;7.27;;;3.00;;
5493;SDS011;2769;49.864;8.656;2022-10-16T08:57:58;3.47;;;2.90;;
5493;SDS011;2769;49.864;8.656;2022-10-16T09:00:27;2.90;;;2.70;;
5493;SDS011;2769;49.864;8.656;2022-10-16T09:02:59;3.60;;;2.97;;
5493;SDS011;2769;49.864;8.656;2022-10-16T09:05:44;3.00;;;2.80;;
5493;SDS011;2769;49.864;8.656;2022-10-16T09:08:37;8.00;;;3.03;;
5493;SDS011;2769;49.864;8.656;2022-10-16T09:11:14;3.40;;;2.83;;
5493;SDS011;2769;49.864;8.656;2022-10-16T09:13:48;5.50;;;2.67;;
5493;SDS011;2769;49.864;8.656;2022-10-16T09:16:27;4.50;;;2.67;;
5493;SDS011;2769;49.864;8.656;2022-10-16T09:19:00;5.20;;;2.73;;
5493;SDS011;2769;49.864;8.656;2022-10-16T09:21:40;5.30;;;3.13;;
5493;SDS011;2769;49.864;8.656;2022-10-16T09:24:13;3.63;;;3.17;;
5493;SDS011;2769;49.864;8.656;2022-10-16T09:26:48;4.20;;;2.80;;
5493;SDS011;2769;49.864;8.656;2022-10-16T09:29:17;4.30;;;3.10;;
5493;SDS011;2769;49.864;8.656;2022-10-16T09:31:49;4.10;;;2.60;;
5493;SDS011;2769;49.864;8.656;2022-10-16T09:34:21;2.47;;;2.27;;
5493;SDS011;2769;49.864;8.656;2022-10-16T09:36:55;2.50;;;2.33;;
5493;SDS011;2769;49.864;8.656;2022-10-16T09:39:27;3.70;;;2.43;;
5493;SDS011;2769;49.864;8.656;2022-10-16T09:41:55;3.50;;;2.70;;
5493;SDS011;2769;49.864;8.656;2022-10-16T09:44:24;8.10;;;2.53;;
5493;SDS011;2769;49.864;8.656;2022-10-16T09:47:02;4.03;;;2.40;;
5493;SDS011;2769;49.864;8.656;2022-10-16T09:49:30;2.73;;;2.50;;
5493;SDS011;2769;49.864;8.656;2022-10-16T09:52:03;4.40;;;2.60;;
5493;SDS011;2769;49.864;8.656;2022-10-16T09:54:33;2.70;;;2.20;;
5493;SDS011;2769;49.864;8.656;2022-10-16T09:57:05;5.43;;;2.73;;
5493;SDS011;2769;49.864;8.656;2022-10-16T09:59:45;3.83;;;2.63;;
5493;SDS011;2769;49.864;8.656;2022-10-16T10:02:15;3.43;;;2.30;;
5493;SDS011;2769;49.864;8.656;2022-10-16T10:04:47;3.73;;;1.90;;
5493;SDS011;2769;49.864;8.656;2022-10-16T10:07:21;2.77;;;2.57;;
5493;SDS011;2769;49.864;8.656;2022-10-16T10:09:55;1.70;;;1.60;;
5493;SDS011;2769;49.864;8.656;2022-10-16T10:12:25;2.13;;;2.00;;
5493;SDS011;2769;49.864;8.656;2022-10-16T10:14:56;1.70;;;1.60;;
5493;SDS011;2769;49.864;8.656;2022-10-16T10:17:26;1.83;;;1.73;;
5493;SDS011;2769;49.864;8.656;2022-10-16T10:19:55;1.80;;;1.70;;
5493;SDS011;2769;49.864;8.656;2022-10-16T10:22:29;2.90;;;1.90;;
5493;SDS011;2769;49.864;8.656;2022-10-16T10:28:01;1.90;;;1.80;;
5493;SDS011;2769;49.864;8.656;2022-10-16T10:30:39;8.33;;;3.63;;
5493;SDS011;2769;49.864;8.656;2022-10-16T10:33:22;2.00;;;1.90;;
5493;SDS011;2769;49.864;8.656;2022-10-16T10:35:57;1.77;;;1.67;;
5493;SDS011;2769;49.864;8.656;2022-10-16T10:38:38;3.60;;;1.93;;
5493;SDS011;2769;49.864;8.656;2022-10-16T10:41:18;2.37;;;1.50;;
5493;SDS011;2769;49.864;8.656;2022-10-16T10:44:05;1.67;;;1.57;;
5493;SDS011;2769;49.864;8.656;2022-10-16T10:46:41;1.63;;;1.53;;
5493;SDS011;2769;49.864;8.656;2022-10-16T10:49:19;2.23;;;1.40;;
5493;SDS011;2769;49.864;8.656;2022-10-16T10:52:08;1.50;;;1.50;;
5493;SDS011;2769;49.864;8.656;2022-10-16T10:54:56;1.70;;;1.60;;
5493;SDS011;2769;49.864;8.656;2022-10-16T10:57:38;2.70;;;1.87;;
5493;SDS011;2769;49.864;8.656;2022-10-16T11:00:15;2.47;;;1.50;;
5493;SDS011;2769;49.864;8.656;2022-10-16T11:02:50;5.87;;;1.67;;
5493;SDS011;2769;49.864;8.656;2022-10-16T11:05:27;1.50;;;1.40;;
5493;SDS011;2769;49.864;8.656;2022-10-16T11:08:03;6.30;;;1.47;;
5493;SDS011;2769;49.864;8.656;2022-10-16T11:10:38;2.43;;;1.60;;
5493;SDS011;2769;49.864;8.656;2022-10-16T11:13:17;1.80;;;1.70;;
5493;SDS011;2769;49.864;8.656;2022-10-16T11:15:51;4.20;;;1.70;;
5493;SDS011;2769;49.864;8.656;2022-10-16T11:18:24;1.60;;;1.50;;
5493;SDS011;2769;49.864;8.656;2022-10-16T11:20:59;2.00;;;1.80;;
5493;SDS011;2769;49.864;8.656;2022-10-16T11:23:33;4.70;;;1.60;;
5493;SDS011;2769;49.864;8.656;2022-10-16T11:26:10;1.90;;;1.80;;
5493;SDS011;2769;49.864;8.656;2022-10-16T11:28:44;6.40;;;1.97;;
5493;SDS011;2769;49.864;8.656;2022-10-16T11:31:17;2.80;;;1.70;;
5493;SDS011;2769;49.864;8.656;2022-10-16T11:33:54;3.33;;;1.63;;
5493;SDS011;2769;49.864;8.656;2022-10-16T11:36:33;2.67;;;1.80;;
5493;SDS011;2769;49.864;8.656;2022-10-16T11:39:09;2.80;;;1.60;;
5493;SDS011;2769;49.864;8.656;2022-10-16T11:41:47;5.73;;;2.20;;
5493;SDS011;2769;49.864;8.656;2022-10-16T11:44:23;2.27;;;2.07;;
5493;SDS011;2769;49.864;8.656;2022-10-16T11:47:19;1.87;;;1.77;;
5493;SDS011;2769;49.864;8.656;2022-10-16T11:50:17;1.90;;;1.80;;
5493;SDS011;2769;49.864;8.656;2022-10-16T11:52:52;2.23;;;2.13;;
5493;SDS011;2769;49.864;8.656;2022-10-16T11:55:26;3.17;;;2.00;;
5493;SDS011;2769;49.864;8.656;2022-10-16T11:57:59;2.20;;;1.90;;
5493;SDS011;2769;49.864;8.656;2022-10-16T12:00:34;1.90;;;1.90;;
5493;SDS011;2769;49.864;8.656;2022-10-16T12:03:10;2.13;;;1.80;;
5493;SDS011;2769;49.864;8.656;2022-10-16T12:08:40;2.00;;;1.80;;
5493;SDS011;2769;49.864;8.656;2022-10-16T12:11:20;2.60;;;1.80;;
5493;SDS011;2769;49.864;8.656;2022-10-16T12:14:03;5.80;;;2.00;;
5493;SDS011;2769;49.864;8.656;2022-10-16T12:16:36;1.97;;;1.87;;
5493;SDS011;2769;49.864;8.656;2022-10-16T12:19:10;1.87;;;1.77;;
5493;SDS011;2769;49.864;8.656;2022-10-16T12:21:40;2.00;;;1.90;;
5493;SDS011;2769;49.864;8.656;2022-10-16T12:24:19;1.73;;;1.50;;
5493;SDS011;2769;49.864;8.656;2022-10-16T12:26:51;1.60;;;1.50;;
5493;SDS011;2769;49.864;8.656;2022-10-16T12:29:23;1.67;;;1.57;;
5493;SDS011;2769;49.864;8.656;2022-10-16T12:32:04;2.93;;;2.23;;
5493;SDS011;2769;49.864;8.656;2022-10-16T12:34:37;4.10;;;1.70;;
5493;SDS011;2769;49.864;8.656;2022-10-16T12:37:08;5.90;;;2.00;;
5493;SDS011;2769;49.864;8.656;2022-10-16T12:39:40;7.43;;;2.07;;
5493;SDS011;2769;49.864;8.656;2022-10-16T12:42:22;4.03;;;2.30;;
5493;SDS011;2769;49.864;8.656;2022-10-16T12:44:58;4.10;;;1.93;;
5493;SDS011;2769;49.864;8.656;2022-10-16T12:47:38;2.20;;;2.10;;
5493;SDS011;2769;49.864;8.656;2022-10-16T12:50:23;4.10;;;2.07;;
5493;SDS011;2769;49.864;8.656;2022-10-16T12:52:52;1.83;;;1.70;;
5493;SDS011;2769;49.864;8.656;2022-10-16T12:55:21;2.23;;;2.03;;
5493;SDS011;2769;49.864;8.656;2022-10-16T12:57:57;2.40;;;1.83;;
5493;SDS011;2769;49.864;8.656;2022-10-16T13:00:36;3.40;;;2.23;;
5493;SDS011;2769;49.864;8.656;2022-10-16T13:06:22;2.30;;;2.20;;
5493;SDS011;2769;49.864;8.656;2022-10-16T13:09:04;3.33;;;2.30;;
5493;SDS011;2769;49.864;8.656;2022-10-16T13:11:45;5.77;;;2.07;;
5493;SDS011;2769;49.864;8.656;2022-10-16T13:14:32;10.73;;;2.50;;
5493;SDS011;2769;49.864;8.656;2022-10-16T13:17:15;7.60;;;3.00;;
5493;SDS011;2769;49.864;8.656;2022-10-16T13:19:52;6.40;;;2.93;;
5493;SDS011;2769;49.864;8.656;2022-10-16T13:22:29;3.83;;;2.60;;
5493;SDS011;2769;49.864;8.656;2022-10-16T13:25:08;2.27;;;2.10;;
5493;SDS011;2769;49.864;8.656;2022-10-16T13:27:48;2.83;;;2.63;;
5493;SDS011;2769;49.864;8.656;2022-10-16T13:30:32;5.00;;;2.20;;
5493;SDS011;2769;49.864;8.656;2022-10-16T13:33:06;2.40;;;2.20;;
5493;SDS011;2769;49.864;8.656;2022-10-16T13:35:46;6.07;;;2.70;;
5493;SDS011;2769;49.864;8.656;2022-10-16T13:38:17;3.10;;;2.10;;
5493;SDS011;2769;49.864;8.656;2022-10-16T13:40:48;2.90;;;2.27;;
5493;SDS011;2769;49.864;8.656;2022-10-16T13:43:18;2.43;;;2.23;;
5493;SDS011;2769;49.864;8.656;2022-10-16T13:45:53;3.57;;;2.33;;
5493;SDS011;2769;49.864;8.656;2022-10-16T13:48:23;3.73;;;2.83;;
5493;SDS011;2769;49.864;8.656;2022-10-16T13:50:58;2.43;;;2.23;;
5493;SDS011;2769;49.864;8.656;2022-10-16T13:53:31;2.40;;;2.30;;
5493;SDS011;2769;49.864;8.656;2022-10-16T13:56:01;2.57;;;2.47;;
5493;SDS011;2769;49.864;8.656;2022-10-16T13:58:31;3.07;;;2.80;;
5493;SDS011;2769;49.864;8.656;2022-10-16T14:01:00;3.03;;;2.70;;
5493;SDS011;2769;49.864;8.656;2022-10-16T14:03:32;3.07;;;2.80;;
5493;SDS011;2769;49.864;8.656;2022-10-16T14:06:03;3.10;;;2.90;;
5493;SDS011;2769;49.864;8.656;2022-10-16T14:08:36;4.10;;;2.33;;
5493;SDS011;2769;49.864;8.656;2022-10-16T14:11:09;2.73;;;2.53;;
5493;SDS011;2769;49.864;8.656;2022-10-16T14:13:38;2.47;;;2.27;;
5493;SDS011;2769;49.864;8.656;2022-10-16T14:16:15;2.93;;;2.73;;
5493;SDS011;2769;49.864;8.656;2022-10-16T14:18:50;5.40;;;2.60;;
5493;SDS011;2769;49.864;8.656;2022-10-16T14:21:24;3.17;;;3.03;;
5493;SDS011;2769;49.864;8.656;2022-10-16T14:23:54;5.07;;;3.20;;
5493;SDS011;2769;49.864;8.656;2022-10-16T14:26:24;4.47;;;2.57;;
5493;SDS011;2769;49.864;8.656;2022-10-16T14:29:02;5.03;;;2.57;;
5493;SDS011;2769;49.864;8.656;2022-10-16T14:31:39;12.50;;;2.90;;
5493;SDS011;2769;49.864;8.656;2022-10-16T14:36:51;8.83;;;3.10;;
5493;SDS011;2769;49.864;8.656;2022-10-16T14:39:21;7.23;;;3.17;;
5493;SDS011;2769;49.864;8.656;2022-10-16T14:41:55;5.70;;;3.10;;
5493;SDS011;2769;49.864;8.656;2022-10-16T14:44:27;4.67;;;2.30;;
5493;SDS011;2769;49.864;8.656;2022-10-16T14:46:58;3.17;;;2.40;;
5493;SDS011;2769;49.864;8.656;2022-10-16T14:49:35;2.90;;;2.70;;
5493;SDS011;2769;49.864;8.656;2022-10-16T14:52:07;3.10;;;2.80;;
5493;SDS011;2769;49.864;8.656;2022-10-16T14:54:39;6.27;;;2.80;;
5493;SDS011;2769;49.864;8.656;2022-10-16T14:57:13;7.47;;;3.20;;
5493;SDS011;2769;49.864;8.656;2022-10-16T14:59:45;6.10;;;2.83;;
5493;SDS011;2769;49.864;8.656;2022-10-16T15:02:16;2.80;;;2.70;;
5493;SDS011;2769;49.864;8.656;2022-10-16T15:04:50;3.23;;;2.63;;
5493;SDS011;2769;49.864;8.656;2022-10-16T15:07:18;3.40;;;2.90;;
5493;SDS011;2769;49.864;8.656;2022-10-16T15:09:48;3.00;;;2.80;;
5493;SDS011;2769;49.864;8.656;2022-10-16T15:12:16;4.73;;;2.63;;
5493;SDS011;2769;49.864;8.656;2022-10-16T15:14:44;4.70;;;2.90;;
5493;SDS011;2769;49.864;8.656;2022-10-16T15:17:12;4.30;;;3.30;;
5493;SDS011;2769;49.864;8.656;2022-10-16T15:19:45;3.97;;;2.40;;
5493;SDS011;2769;49.864;8.656;2022-10-16T15:22:13;4.20;;;2.87;;
5493;SDS011;2769;49.864;8.656;2022-10-16T15:24:41;2.80;;;2.70;;
5493;SDS011;2769;49.864;8.656;2022-10-16T15:27:11;12.90;;;2.53;;
5493;SDS011;2769;49.864;8.656;2022-10-16T15:29:39;3.37;;;2.20;;
5493;SDS011;2769;49.864;8.656;2022-10-16T15:32:08;9.40;;;2.17;;
5493;SDS011;2769;49.864;8.656;2022-10-16T15:34:37;5.10;;;2.50;;
5493;SDS011;2769;49.864;8.656;2022-10-16T15:37:05;4.77;;;2.50;;
5493;SDS011;2769;49.864;8.656;2022-10-16T15:39:33;3.20;;;2.53;;
5493;SDS011;2769;49.864;8.656;2022-10-16T15:42:06;3.87;;;2.33;;
5493;SDS011;2769;49.864;8.656;2022-10-16T15:44:36;2.50;;;2.30;;
5493;SDS011;2769;49.864;8.656;2022-10-16T15:47:04;5.97;;;2.60;;
5493;SDS011;2769;49.864;8.656;2022-10-16T15:49:32;11.10;;;2.90;;
5493;SDS011;2769;49.864;8.656;2022-10-16T15:52:00;2.70;;;2.50;;
5493;SDS011;2769;49.864;8.656;2022-10-16T15:54:28;4.40;;;2.60;;
5493;SDS011;2769;49.864;8.656;2022-10-16T15:56:56;4.20;;;3.17;;